Map

Track Data

SID SEASON NUMBER BASIN SUBBASIN NAME ISO_TIME NATURE LAT LON WMO_WIND WMO_PRES WMO_AGENCY TRACK_TYPE DIST2LAND LANDFALL IFLAG USA_AGENCY USA_ATCF_ID USA_LAT USA_LON USA_RECORD USA_STATUS USA_WIND USA_PRES USA_SSHS USA_R34_NE USA_R34_SE USA_R34_SW USA_R34_NW USA_R50_NE USA_R50_SE USA_R50_SW USA_R50_NW USA_R64_NE USA_R64_SE USA_R64_SW USA_R64_NW USA_POCI USA_ROCI USA_RMW USA_EYE TOKYO_LAT TOKYO_LON TOKYO_GRADE TOKYO_WIND TOKYO_PRES TOKYO_R50_DIR TOKYO_R50_LONG TOKYO_R50_SHORT TOKYO_R30_DIR TOKYO_R30_LONG TOKYO_R30_SHORT TOKYO_LAND CMA_LAT CMA_LON CMA_CAT CMA_WIND CMA_PRES HKO_LAT HKO_LON HKO_CAT HKO_WIND HKO_PRES NEWDELHI_LAT NEWDELHI_LON NEWDELHI_GRADE NEWDELHI_WIND NEWDELHI_PRES NEWDELHI_CI NEWDELHI_DP NEWDELHI_POCI REUNION_LAT REUNION_LON REUNION_TYPE REUNION_WIND REUNION_PRES REUNION_TNUM REUNION_CI REUNION_RMW REUNION_R34_NE REUNION_R34_SE REUNION_R34_SW REUNION_R34_NW REUNION_R50_NE REUNION_R50_SE REUNION_R50_SW REUNION_R50_NW REUNION_R64_NE REUNION_R64_SE REUNION_R64_SW REUNION_R64_NW BOM_LAT BOM_LON BOM_TYPE BOM_WIND BOM_PRES BOM_TNUM BOM_CI BOM_RMW BOM_R34_NE BOM_R34_SE BOM_R34_SW BOM_R34_NW BOM_R50_NE BOM_R50_SE BOM_R50_SW BOM_R50_NW BOM_R64_NE BOM_R64_SE BOM_R64_SW BOM_R64_NW BOM_ROCI BOM_POCI BOM_EYE BOM_POS_METHOD BOM_PRES_METHOD NADI_LAT NADI_LON NADI_CAT NADI_WIND NADI_PRES WELLINGTON_LAT WELLINGTON_LON WELLINGTON_WIND WELLINGTON_PRES DS824_LAT DS824_LON DS824_STAGE DS824_WIND DS824_PRES TD9636_LAT TD9636_LON TD9636_STAGE TD9636_WIND TD9636_PRES TD9635_LAT TD9635_LON TD9635_WIND TD9635_PRES TD9635_ROCI NEUMANN_LAT NEUMANN_LON NEUMANN_CLASS NEUMANN_WIND NEUMANN_PRES MLC_LAT MLC_LON MLC_CLASS MLC_WIND MLC_PRES USA_GUST BOM_GUST BOM_GUST_PER REUNION_GUST REUNION_GUST_PER USA_SEAHGT USA_SEARAD_NE USA_SEARAD_SE USA_SEARAD_SW USA_SEARAD_NW STORM_SPEED STORM_DIR
1997032S17055 1997 10 SI MM JOSIE 1997-02-01 00:00:00 TS -16.8000 55.0000 main 453 453 O___________O_ jtwc_sh SH231997 -16.8000 55.0000 15 -1 -16.8000 55.0000 TC 15 3 267
1997032S17055 1997 10 SI MM JOSIE 1997-02-01 03:00:00 TS -16.8075 54.8525 main 459 459 P___________P_ SH231997 -16.8075 54.8525 15 -1 -16.8075 54.8525 TC 15 3 270
1997032S17055 1997 10 SI MM JOSIE 1997-02-01 06:00:00 TS -16.8000 54.7000 main 472 465 O___________O_ jtwc_sh SH231997 -16.8000 54.7000 15 -1 -16.8000 54.7000 TC 15 3 278
1997032S17055 1997 10 SI MM JOSIE 1997-02-01 09:00:00 TS -16.7650 54.5425 main 455 441 P___________P_ SH231997 -16.7650 54.5425 15 -1 -16.7650 54.5425 TC 15 3 289
1997032S17055 1997 10 SI MM JOSIE 1997-02-01 12:00:00 TS -16.7000 54.4000 main 441 427 O___________O_ jtwc_sh SH231997 -16.7000 54.4000 15 -1 -16.7000 54.4000 TC 15 3 303
1997032S17055 1997 10 SI MM JOSIE 1997-02-01 15:00:00 TS -16.6075 54.2925 main 427 414 P___________P_ SH231997 -16.6075 54.2925 15 -1 -16.6075 54.2925 TC 15 3 316
1997032S17055 1997 10 SI MM JOSIE 1997-02-01 18:00:00 TS -16.5000 54.2000 main 414 401 O___________O_ jtwc_sh SH231997 -16.5000 54.2000 15 -1 -16.5000 54.2000 TC 15 3 317
1997032S17055 1997 10 SI MM JOSIE 1997-02-01 21:00:00 TS -16.4075 54.1000 main 401 387 P___________P_ SH231997 -16.4075 54.1000 17 -1 -16.4075 54.1000 TC 17 3 316
1997032S17055 1997 10 SI MM JOSIE 1997-02-02 00:00:00 TS -16.3000 54.0000 main 387 374 O___________O_ jtwc_sh SH231997 -16.3000 54.0000 20 -1 -16.3000 54.0000 TC 20 3 322
1997032S17055 1997 10 SI MM JOSIE 1997-02-02 03:00:00 TS -16.1575 53.9000 main 374 359 P___________P_ SH231997 -16.1575 53.9000 20 -1 -16.1575 53.9000 TC 20 4 327
1997032S17055 1997 10 SI MM JOSIE 1997-02-02 06:00:00 TS -16.0000 53.8000 main 359 347 O___________O_ jtwc_sh SH231997 -16.0000 53.8000 20 -1 -16.0000 53.8000 TC 20 4 329
1997032S17055 1997 10 SI MM JOSIE 1997-02-02 09:00:00 TS -15.8500 53.7075 main 345 333 P___________P_ SH231997 -15.8500 53.7075 20 -1 -15.8500 53.7075 TC 20 4 327
1997032S17055 1997 10 SI MM JOSIE 1997-02-02 12:00:00 TS -15.7000 53.6000 main 333 322 O___________O_ jtwc_sh SH231997 -15.7000 53.6000 20 -1 -15.7000 53.6000 TC 20 4 321
1997032S17055 1997 10 SI MM JOSIE 1997-02-02 15:00:00 TS -15.5500 53.4575 main 321 300 P___________P_ SH231997 -15.5500 53.4575 20 -1 -15.5500 53.4575 TC 20 4 316
1997032S17055 1997 10 SI MM JOSIE 1997-02-02 18:00:00 TS -15.4000 53.3000 main 300 289 O___________O_ jtwc_sh SH231997 -15.4000 53.3000 20 -1 -15.4000 53.3000 TC 20 4 315
1997032S17055 1997 10 SI MM JOSIE 1997-02-02 21:00:00 TS -15.2425 53.1425 main 279 268 P___________P_ SH231997 -15.2425 53.1425 20 -1 -15.2425 53.1425 TC 20 4 316
1997032S17055 1997 10 SI MM JOSIE 1997-02-03 00:00:00 TS -15.1000 53.0000 main 268 258 O___________O_ jtwc_sh SH231997 -15.1000 53.0000 20 -1 -15.1000 53.0000 TC 20 4 317
1997032S17055 1997 10 SI MM JOSIE 1997-02-03 03:00:00 TS -14.9850 52.8925 main 258 249 P___________P_ SH231997 -14.9850 52.8925 20 -1 -14.9850 52.8925 TC 20 3 316
1997032S17055 1997 10 SI MM JOSIE 1997-02-03 06:00:00 TS -14.9000 52.8000 main 249 238 O___________O_ jtwc_sh SH231997 -14.9000 52.8000 20 -1 -14.9000 52.8000 TC 20 2 307
1997032S17055 1997 10 SI MM JOSIE 1997-02-03 09:00:00 TS -14.8425 52.7000 main 240 230 P___________P_ SH231997 -14.8425 52.7000 20 -1 -14.8425 52.7000 TC 20 2 297
1997032S17055 1997 10 SI MM JOSIE 1997-02-03 12:00:00 TS -14.8000 52.6000 main 230 219 O___________O_ jtwc_sh SH231997 -14.8000 52.6000 20 -1 -14.8000 52.6000 TC 20 2 293
1997032S17055 1997 10 SI MM JOSIE 1997-02-03 15:00:00 TS -14.7575 52.4925 main 219 211 P___________P_ SH231997 -14.7575 52.4925 20 -1 -14.7575 52.4925 TC 20 2 297
1997032S17055 1997 10 SI MM JOSIE 1997-02-03 18:00:00 TS -14.7000 52.4000 main 211 204 O___________O_ jtwc_sh SH231997 -14.7000 52.4000 20 -1 -14.7000 52.4000 TC 20 2 317
1997032S17055 1997 10 SI MM JOSIE 1997-02-03 21:00:00 TS -14.6075 52.3425 main 204 204 P___________P_ SH231997 -14.6075 52.3425 22 -1 -14.6075 52.3425 TC 22 2 333
1997032S17055 1997 10 SI MM JOSIE 1997-02-04 00:00:00 TS -14.5000 52.3000 main 208 203 O___________O_ jtwc_sh SH231997 -14.5000 52.3000 25 -1 -14.5000 52.3000 TC 25 2 334
1997032S17055 1997 10 SI MM JOSIE 1997-02-04 03:00:00 TS -14.4000 52.2425 main 203 203 P___________P_ SH231997 -14.4000 52.2425 25 -1 -14.4000 52.2425 TC 25 2 333
1997032S17055 1997 10 SI MM JOSIE 1997-02-04 06:00:00 TS -14.3000 52.2000 main 208 208 O___________O_ jtwc_sh SH231997 -14.3000 52.2000 25 -1 -14.3000 52.2000 TC 25 2 343
1997032S17055 1997 10 SI MM JOSIE 1997-02-04 09:00:00 TS -14.2000 52.1850 main 214 214 P___________P_ SH231997 -14.2000 52.1850 25 -1 -14.2000 52.1850 TC 25 2 8
1997032S17055 1997 10 SI MM JOSIE 1997-02-04 12:00:00 TS -14.1000 52.2000 main 220 220 O___________O_ jtwc_sh SH231997 -14.1000 52.2000 25 -1 -14.1000 52.2000 TC 25 2 17
1997032S17055 1997 10 SI MM JOSIE 1997-02-04 15:00:00 TS -14.0000 52.2425 main 225 225 P___________P_ SH231997 -14.0000 52.2425 25 -1 -14.0000 52.2425 TC 25 2 27
1997032S17055 1997 10 SI MM JOSIE 1997-02-04 18:00:00 TS -13.9000 52.3000 main 237 237 O___________O_ jtwc_sh SH231997 -13.9000 52.3000 25 -1 -13.9000 52.3000 TC 25 2 28
1997032S17055 1997 10 SI MM JOSIE 1997-02-04 21:00:00 TS -13.8000 52.3500 main 248 237 P___________P_ SH231997 -13.8000 52.3500 25 -1 -13.8000 52.3500 TC 25 2 27
1997032S17055 1997 10 SI MM JOSIE 1997-02-05 00:00:00 TS -13.7000 52.4000 main 248 248 O___________O_ jtwc_sh SH231997 -13.7000 52.4000 25 -1 -13.7000 52.4000 TC 25 2 24
1997032S17055 1997 10 SI MM JOSIE 1997-02-05 03:00:00 TS -13.5925 52.4425 main 249 249 P___________P_ SH231997 -13.5925 52.4425 25 -1 -13.5925 52.4425 TC 25 2 21
1997032S17055 1997 10 SI MM JOSIE 1997-02-05 06:00:00 TS -13.5111 52.4667 25 1004 reunion main 261 261 O____O______O_ jtwc_sh SH231997 -13.5000 52.5000 25 -1 -13.6000 52.2000 2 25 1004 2.00000 2.00000 -13.5000 52.5000 TC 25 2 28
1997032S17055 1997 10 SI MM JOSIE 1997-02-05 09:00:00 TS -13.4400 52.5265 main 263 263 P____P______P_ SH231997 -13.4425 52.5925 25 -1 -13.4300 52.2625 2 25 1003 -13.4425 52.5925 TC 25 2 40
1997032S17055 1997 10 SI MM JOSIE 1997-02-05 12:00:00 TS -13.3727 52.5909 25 1002 reunion main 274 274 O____O______O_ jtwc_sh SH231997 -13.4000 52.7000 25 -1 -13.3000 52.3000 2 25 1002 2.00000 2.00000 -13.4000 52.7000 TC 25 2 38
1997032S17055 1997 10 SI MM JOSIE 1997-02-05 15:00:00 TS -13.3117 52.6283 main 276 276 P____P______P_ SH231997 -13.3500 52.7925 27 -1 -13.2350 52.3000 2 25 1002 -13.3500 52.7925 TC 27 2 44
1997032S17055 1997 10 SI MM JOSIE 1997-02-05 18:00:00 TS -13.2667 52.7000 25 1002 reunion main 286 286 O____O______O_ jtwc_sh SH231997 -13.3000 52.9000 30 -1 -13.2000 52.3000 2 25 1002 2.00000 2.00000 -13.3000 52.9000 TC 30 2 63
1997032S17055 1997 10 SI MM JOSIE 1997-02-05 21:00:00 TS -13.2242 52.7991 main 299 299 P____P______P_ SH231997 -13.2500 53.0425 30 -1 -13.1725 52.3124 2 25 1002 -13.2500 53.0425 TC 30 2 66
1997032S17055 1997 10 SI MM JOSIE 1997-02-06 00:00:00 TS -13.1667 52.9333 25 1002 reunion main 310 310 O____O______O_ jtwc_sh SH231997 -13.2000 53.2000 30 -1 -13.1000 52.4000 2 25 1002 2.00000 2.00000 -13.2000 53.2000 TC 30 3 62
1997032S17055 1997 10 SI MM JOSIE 1997-02-06 03:00:00 TS -13.0667 53.1042 main 333 333 P____P______P_ SH231997 -13.1425 53.3500 27 -1 -12.9150 52.6126 2 25 1002 -13.1425 53.3500 TC 27 4 61
1997032S17055 1997 10 SI MM JOSIE 1997-02-06 06:00:00 TS -12.9667 53.3000 25 1002 reunion main 357 357 O____O______O_ jtwc_sh SH231997 -13.1000 53.5000 25 -1 -12.7000 52.9000 2 25 1002 2.00000 2.00000 -13.1000 53.5000 TC 25 4 65
1997032S17055 1997 10 SI MM JOSIE 1997-02-06 09:00:00 TS -12.8842 53.5000 main 381 381 P____P______P_ SH231997 -13.0850 53.6500 25 -1 -12.4825 53.2002 2 25 1002 -13.0850 53.6500 TC 25 4 76
1997032S17055 1997 10 SI MM JOSIE 1997-02-06 12:00:00 TS -12.8667 53.7000 25 1002 reunion main 402 402 O____O______O_ jtwc_sh SH231997 -13.1000 53.8000 25 -1 -12.4000 53.5000 2 25 1002 2.00000 2.00000 -13.1000 53.8000 TC 25 4 101
1997032S17055 1997 10 SI MM JOSIE 1997-02-06 15:00:00 TS -12.9583 53.8933 main 420 420 P____P______P_ SH231997 -13.1350 53.9575 25 -1 -12.6050 53.7648 2 25 1001 -13.1350 53.9575 TC 25 4 123
1997032S17055 1997 10 SI MM JOSIE 1997-02-06 18:00:00 TS -13.1000 54.0667 25 1000 reunion main 439 437 O____O______O_ jtwc_sh SH231997 -13.2000 54.1000 25 -1 -12.9000 54.0000 2 25 1000 2.00000 2.00000 -13.2000 54.1000 TC 25 4 129
1997032S17055 1997 10 SI MM JOSIE 1997-02-06 21:00:00 TS -13.2117 54.2125 main 448 448 P____P______P_ SH231997 -13.2925 54.2075 25 -1 -13.0500 54.2226 2 25 1000 -13.2925 54.2075 TC 25 4 132
1997032S17055 1997 10 SI MM JOSIE 1997-02-07 00:00:00 TS -13.3333 54.3333 25 1000 reunion main 457 457 O____O______O_ jtwc_sh SH231997 -13.4000 54.3000 25 -1 -13.2000 54.4000 2 25 1000 2.00000 2.00000 -13.4000 54.3000 TC 25 3 139
1997032S17055 1997 10 SI MM JOSIE 1997-02-07 03:00:00 TS -13.4733 54.4458 main 461 461 P____P______P_ SH231997 -13.4925 54.4075 25 -1 -13.4350 54.5225 2 25 1000 -13.4925 54.4075 TC 25 4 147
1997032S17055 1997 10 SI MM JOSIE 1997-02-07 06:00:00 TS -13.6333 54.5333 25 1000 reunion main 466 462 O____O______O_ jtwc_sh SH231997 -13.6000 54.5000 25 -1 -13.7000 54.6000 2 25 1000 2.00000 2.00000 -13.6000 54.5000 TC 25 4 157
1997032S17055 1997 10 SI MM JOSIE 1997-02-07 09:00:00 TS -13.8167 54.6008 main 468 461 P____P______P_ SH231997 -13.7425 54.5650 27 -1 -13.9650 54.6725 2 25 1000 -13.7425 54.5650 TC 27 4 165
1997032S17055 1997 10 SI MM JOSIE 1997-02-07 12:00:00 TS -14.0000 54.6333 25 1000 reunion main 461 458 O____O______O_ jtwc_sh SH231997 -13.9000 54.6000 30 -1 -14.2000 54.7000 2 25 1000 2.00000 2.00000 -13.9000 54.6000 TC 30 3 174
1997032S17055 1997 10 SI MM JOSIE 1997-02-07 15:00:00 TS -14.1550 54.6417 main 455 452 P____P______P_ SH231997 -14.0500 54.6225 30 -1 -14.3650 54.6800 2 25 1000 -14.0500 54.6225 TC 30 3 185
1997032S17055 1997 10 SI MM JOSIE 1997-02-07 18:00:00 TS -14.3000 54.6000 25 1000 reunion main 452 439 O____O______O_ jtwc_sh SH231997 -14.2000 54.6000 30 -1 -14.5000 54.6000 2 25 1000 2.00000 2.00000 -14.2000 54.6000 TC 30 3 199
1997032S17055 1997 10 SI MM JOSIE 1997-02-07 21:00:00 TS -14.4549 54.5333 main 437 424 P____P______P_ SH231997 -14.3499 54.5450 30 -1 -14.6649 54.5100 2 25 1000 -14.3499 54.5450 TC 30 4 217
1997032S17055 1997 10 SI MM JOSIE 1997-02-08 00:00:00 TS -14.6000 54.3667 25 1000 reunion main 424 390 O____O______O_ jtwc_sh SH231997 -14.5000 54.4000 30 -1 -14.8000 54.3000 2 25 1000 2.00000 2.00000 -14.5000 54.4000 TC 30 5 237
1997032S17055 1997 10 SI MM JOSIE 1997-02-08 03:00:00 TS -14.7491 54.0718 main 390 346 P____P______P_ SH231997 -14.6799 54.1526 30 -1 -14.8875 53.9101 2 27 997 -14.6799 54.1526 TC 30 7 251
1997032S17055 1997 10 SI MM JOSIE 1997-02-08 06:00:00 TS -14.8333 53.6667 30 995 reunion main 346 293 O____O______O_ jtwc_sh SH231997 -14.8000 53.8000 30 -1 -14.9000 53.4000 2 30 995 2.50000 2.50000 -14.8000 53.8000 TC 30 8 266
1997032S17055 1997 10 SI MM JOSIE 1997-02-08 09:00:00 TS -14.8142 53.2033 main 293 242 P____P______P_ SH231997 -14.8100 53.3801 30 -1 -14.8226 52.8499 2 30 995 -14.8100 53.3801 TC 30 9 278
1997032S17055 1997 10 SI MM JOSIE 1997-02-08 12:00:00 TS -14.7000 52.7000 30 995 reunion main 242 198 O____O______O_ jtwc_sh SH231997 -14.7000 52.9000 30 -1 -14.7000 52.3000 2 30 995 2.50000 2.50000 -14.7000 52.9000 TC 30 10 287
1997032S17055 1997 10 SI MM JOSIE 1997-02-08 15:00:00 TS -14.5274 52.2217 main 198 166 P____P______P_ SH231997 -14.4799 52.4149 32 -1 -14.6223 51.8352 2 35 992 -14.4799 52.4149 TC 32 10 293
1997032S17055 1997 10 SI MM JOSIE 1997-02-08 18:00:00 TS -14.3000 51.7333 40 990 reunion main 163 129 O____O______O_ jtwc_sh SH231997 -14.2000 51.9000 35 0 -14.5000 51.4000 3 40 990 3.00000 3.00000 -14.2000 51.9000 TC 35 11 296
1997032S17055 1997 10 SI MM JOSIE 1997-02-08 21:00:00 TS -14.0548 51.2367 main 118 64 P____P______P_ SH231997 -13.9499 51.3651 40 0 -14.2647 50.9800 3 40 990 -13.9499 51.3651 TC 40 11 297
1997032S17055 1997 10 SI MM JOSIE 1997-02-09 00:00:00 TS -13.8000 50.7000 40 990 reunion main 64 10 O____O______O_ jtwc_sh SH231997 -13.7000 50.8000 45 0 -14.0000 50.5000 3 40 990 3.00000 3.00000 -13.7000 50.8000 TC 45 12 296
1997032S17055 1997 10 SI MM JOSIE 1997-02-09 03:00:00 TS -13.5140 50.1130 main 10 0 P____P______P_ SH231997 -13.3899 50.2147 47 0 -13.7623 49.9098 3 36 993 -13.3899 50.2147 TC 47 13 291
1997032S17055 1997 10 SI MM JOSIE 1997-02-09 06:00:00 TS -13.3333 49.4667 reunion main 0 0 O____I______O_ jtwc_sh SH231997 -13.2000 49.6000 50 0 -13.6000 49.2000 8 33 996 9.90000 -13.2000 49.6000 TC 50 13 277
1997032S17055 1997 10 SI MM JOSIE 1997-02-09 09:00:00 TS -13.3459 48.7451 main 10 10 P____P______P_ SH231997 -13.2674 48.9577 47 0 -13.5030 48.3198 8 29 999 -13.2674 48.9577 TC 47 14 262
1997032S17055 1997 10 SI MM JOSIE 1997-02-09 12:00:00 TS -13.5333 48.0333 26 1002 reunion main 11 0 O____O______O_ jtwc_sh SH231997 -13.5000 48.3000 45 0 -13.6000 47.5000 2 26 1002 2.50000 2.50000 -13.5000 48.3000 TC 45 14 249
1997032S17055 1997 10 SI MM JOSIE 1997-02-09 15:00:00 TS -13.8431 47.4151 main 54 53 P____P______P_ SH231997 -13.7624 47.6424 45 0 -14.0046 46.9604 2 26 1002 -13.7624 47.6424 TC 45 13 238
1997032S17055 1997 10 SI MM JOSIE 1997-02-09 18:00:00 TS -14.2333 46.8667 26 1002 reunion main 86 85 O____O______O_ jtwc_sh SH231997 -14.1000 47.0000 45 0 -14.5000 46.6000 2 26 1002 2.50000 2.50000 -14.1000 47.0000 TC 45 13 233
1997032S17055 1997 10 SI MM JOSIE 1997-02-09 21:00:00 TS -14.5999 46.3607 main 89 79 P____P______P_ SH231997 -14.4774 46.3774 45 0 -14.8448 46.3273 2 28 1000 -14.4774 46.3774 TC 45 12 232
1997032S17055 1997 10 SI MM JOSIE 1997-02-10 00:00:00 TS -14.9667 45.9000 30 998 reunion main 85 68 O____O______O_ jtwc_sh SH231997 -14.9000 45.8000 45 0 -15.1000 46.1000 2 30 998 2.50000 2.50000 -14.9000 45.8000 TC 45 11 230
1997032S17055 1997 10 SI MM JOSIE 1997-02-10 03:00:00 TS -15.3215 45.4590 main 68 44 P____P______P_ SH231997 -15.3574 45.2700 45 0 -15.2498 45.8372 2 30 998 -15.3574 45.2700 TC 45 11 230
1997032S17055 1997 10 SI MM JOSIE 1997-02-10 06:00:00 TS -15.6667 45.0333 30 998 reunion main 35 30 O____O______O_ jtwc_sh SH231997 -15.8000 44.8000 45 0 -15.4000 45.5000 2 30 998 2.50000 2.50000 -15.8000 44.8000 TC 45 11 231
1997032S17055 1997 10 SI MM JOSIE 1997-02-10 09:00:00 TS -15.9949 44.5973 main 33 10 P____P______P_ SH231997 -16.1649 44.3698 45 0 -15.6549 45.0523 2 30 998 -16.1649 44.3698 TC 45 11 231
1997032S17055 1997 10 SI MM JOSIE 1997-02-10 12:00:00 TS -16.3333 44.1667 30 998 reunion main 21 21 O____O______O_ jtwc_sh SH231997 -16.5000 44.0000 45 0 -16.0000 44.5000 2 30 998 2.00000 2.50000 -16.5000 44.0000 TC 45 11 228
1997032S17055 1997 10 SI MM JOSIE 1997-02-10 15:00:00 TS -16.7341 43.7450 main 67 61 P____P______P_ SH231997 -16.8874 43.6850 45 0 -16.4276 43.8651 2 29 1000 -16.8874 43.6850 TC 45 11 226
1997032S17055 1997 10 SI MM JOSIE 1997-02-10 18:00:00 TS -17.1000 43.3333 28 1002 reunion main 77 71 O____O______O_ jtwc_sh SH231997 -17.2000 43.4000 45 0 -16.9000 43.2000 2 28 1002 2.00000 2.50000 -17.2000 43.4000 TC 45 10 232
1997032S17055 1997 10 SI MM JOSIE 1997-02-10 21:00:00 TS -17.3692 42.9034 main 106 106 P____P______P_ SH231997 -17.3450 43.0923 45 0 -17.4177 42.5255 2 28 1002 -17.3450 43.0923 TC 45 9 240
1997032S17055 1997 10 SI MM JOSIE 1997-02-11 00:00:00 TS -17.5333 42.5333 28 1002 reunion main 148 148 O____O______O_ jtwc_sh SH231997 -17.4000 42.8000 45 0 -17.8000 42.0000 2 28 1002 2.50000 2.50000 -17.4000 42.8000 TC 45 6 250
1997032S17055 1997 10 SI MM JOSIE 1997-02-11 03:00:00 TS -17.5840 42.2864 main 170 170 P____P______P_ SH231997 -17.4424 42.5424 45 0 -17.8672 41.7745 2 31 997 -17.4424 42.5424 TC 45 4 261
1997032S17055 1997 10 SI MM JOSIE 1997-02-11 06:00:00 TS -17.6000 42.1000 35 992 reunion main 191 191 O____O______O_ jtwc_sh SH231997 -17.5000 42.3000 45 0 -17.8000 41.7000 3 35 992 3.00000 3.00000 -17.5000 42.3000 TC 45 4 258
1997032S17055 1997 10 SI MM JOSIE 1997-02-11 09:00:00 TS -17.6650 41.8900 main 213 213 P____P______P_ SH231997 -17.6200 42.0350 45 0 -17.7550 41.5999 3 35 992 -17.6200 42.0350 TC 45 4 242
1997032S17055 1997 10 SI MM JOSIE 1997-02-11 12:00:00 TS -17.8000 41.7000 35 992 reunion main 235 235 O____O______O_ jtwc_sh SH231997 -17.8000 41.8000 45 0 -17.8000 41.5000 3 35 992 3.00000 3.00000 -17.8000 41.8000 TC 45 5 222
1997032S17055 1997 10 SI MM JOSIE 1997-02-11 15:00:00 TS -18.0416 41.5350 main 246 246 P____P______P_ SH231997 -18.0349 41.6349 45 0 -18.0550 41.3352 3 35 992 -18.0349 41.6349 TC 45 6 208
1997032S17055 1997 10 SI MM JOSIE 1997-02-11 18:00:00 TS -18.3333 41.4000 35 992 reunion main 263 263 O____O______O_ jtwc_sh SH231997 -18.3000 41.5000 45 0 -18.4000 41.2000 3 35 992 2.50000 3.00000 -18.3000 41.5000 TC 45 6 202
1997032S17055 1997 10 SI MM JOSIE 1997-02-11 21:00:00 TS -18.6100 41.2949 main 283 283 P____P______P_ SH231997 -18.5500 41.3500 45 0 -18.7300 41.1849 3 35 992 -18.5500 41.3500 TC 45 6 200
1997032S17055 1997 10 SI MM JOSIE 1997-02-12 00:00:00 TS -18.8667 41.2000 35 992 reunion main 300 300 O____O______O_ jtwc_sh SH231997 -18.8000 41.2000 45 0 -19.0000 41.2000 3 35 992 2.50000 3.00000 -18.8000 41.2000 TC 45 5 203
1997032S17055 1997 10 SI MM JOSIE 1997-02-12 03:00:00 TS -19.0792 41.0833 main 315 309 P____P______P_ SH231997 -19.0575 41.0425 45 0 -19.1225 41.1650 3 35 992 -19.0575 41.0425 TC 45 5 209
1997032S17055 1997 10 SI MM JOSIE 1997-02-12 06:00:00 TS -19.2667 40.9667 35 992 reunion main 326 319 O____O______O_ jtwc_sh SH231997 -19.3000 40.9000 45 0 -19.2000 41.1000 3 35 992 3.00000 3.00000 -19.3000 40.9000 TC 45 4 210
1997032S17055 1997 10 SI MM JOSIE 1997-02-12 09:00:00 TS -19.4425 40.8566 main 329 329 P____P______P_ SH231997 -19.5000 40.7775 47 0 -19.3275 41.0149 3 40 988 -19.5000 40.7775 TC 47 4 207
1997032S17055 1997 10 SI MM JOSIE 1997-02-12 12:00:00 TS -19.6333 40.7667 45 985 reunion main 341 336 O____O______O_ jtwc_sh SH231997 -19.7000 40.7000 50 0 -19.5000 40.9000 3 45 985 3.50000 3.50000 -19.7000 40.7000 TC 50 5 198
1997032S17055 1997 10 SI MM JOSIE 1997-02-12 15:00:00 TS -19.8708 40.7141 main 336 325 P____P______P_ SH231997 -19.9425 40.6924 55 0 -19.7275 40.7575 3 45 985 -19.9425 40.6924 TC 55 5 191
1997032S17055 1997 10 SI MM JOSIE 1997-02-12 18:00:00 TS -20.1333 40.6667 45 985 reunion main 325 320 O____O______O_ jtwc_sh SH231997 -20.2000 40.7000 60 0 -20.0000 40.6000 3 45 985 3.50000 3.50000 -20.2000 40.7000 TC 60 5 192
1997032S17055 1997 10 SI MM JOSIE 1997-02-12 21:00:00 TS -20.3775 40.5957 main 321 317 P____P______P_ SH231997 -20.4275 40.6724 65 1 -20.2775 40.4425 3 45 985 -20.4275 40.6724 TC 65 6 197
1997032S17055 1997 10 SI MM JOSIE 1997-02-13 00:00:00 TS -20.6667 40.5000 45 985 reunion main 320 318 O____O______O_ jtwc_sh SH231997 -20.7000 40.6000 70 1 -20.6000 40.3000 3 45 985 3.50000 3.50000 -20.7000 40.6000 TC 70 7 198
1997032S17055 1997 10 SI MM JOSIE 1997-02-13 03:00:00 TS -21.0342 40.3643 main 318 312 P____P______P_ SH231997 -21.0700 40.4576 75 1 -20.9625 40.1775 3 50 980 -21.0700 40.4576 TC 75 8 197
1997032S17055 1997 10 SI MM JOSIE 1997-02-13 06:00:00 TS -21.4667 40.2333 55 975 reunion main 319 312 O____O______O_ jtwc_sh SH231997 -21.5000 40.3000 80 1 -21.4000 40.1000 3 55 975 4.00000 4.00000 -21.5000 40.3000 TC 80 9 193
1997032S17055 1997 10 SI MM JOSIE 1997-02-13 09:00:00 TS -21.9250 40.1417 main 321 318 P____P______P_ SH231997 -21.9275 40.1701 85 2 -21.9200 40.0849 3 60 970 -21.9275 40.1701 TC 85 10 187
1997032S17055 1997 10 SI MM JOSIE 1997-02-13 12:00:00 TS -22.4333 40.1000 65 965 reunion main 318 318 O____O______O_ jtwc_sh SH231997 -22.4000 40.1000 90 2 -22.5000 40.1000 4 65 965 4.50000 4.50000 -22.4000 40.1000 TC 90 11 0
1997032S17055 1997 10 SI MM JOSIE 1997-02-13 15:00:00 TS -23.0000 40.1355 main 327 323 P____P______P_ SH231997 -22.9425 40.1347 90 2 -23.1149 40.1371 4 70 957 -22.9425 40.1347 TC 90 11 177
1997032S17055 1997 10 SI MM JOSIE 1997-02-13 18:00:00 TS -23.5667 40.1667 75 950 reunion main 338 338 O____O______O_ jtwc_sh SH231997 -23.5000 40.2000 90 2 -23.7000 40.1000 4 75 950 5.00000 5.00000 -23.5000 40.2000 TC 90 11 182
1997032S17055 1997 10 SI MM JOSIE 1997-02-13 21:00:00 TS -24.0676 40.0861 main 358 358 P____P______P_ SH231997 -24.0075 40.2076 90 2 -24.1877 39.8432 4 75 950 -24.0075 40.2076 TC 90 10 189
1997032S17055 1997 10 SI MM JOSIE 1997-02-14 00:00:00 TS -24.5333 40.0000 75 950 reunion main 375 375 O____O______O_ jtwc_sh SH231997 -24.5000 40.2000 90 2 -24.6000 39.6000 4 75 950 5.00000 5.00000 -24.5000 40.2000 TC 90 9 186
1997032S17055 1997 10 SI MM JOSIE 1997-02-14 03:00:00 TS -24.9883 39.9818 main 385 385 P____P______P_ SH231997 -25.0150 40.1852 90 2 -24.9349 39.5750 4 75 950 -25.0150 40.1852 TC 90 9 178
1997032S17055 1997 10 SI MM JOSIE 1997-02-14 06:00:00 TS -25.4333 40.0333 75 950 reunion main 392 385 O____O______O_ jtwc_sh SH231997 -25.5000 40.2000 90 2 -25.3000 39.7000 4 75 950 5.00000 5.00000 -25.5000 40.2000 TC 90 9 171
1997032S17055 1997 10 SI MM JOSIE 1997-02-14 09:00:00 TS -25.9008 40.1458 main 399 389 P____P______P_ SH231997 -25.9224 40.2626 90 2 -25.8575 39.9121 4 72 952 -25.9224 40.2626 TC 90 9 163
1997032S17055 1997 10 SI MM JOSIE 1997-02-14 12:00:00 TS -26.3333 40.3333 70 955 reunion main 398 388 O____O______O_ jtwc_sh SH231997 -26.3000 40.4000 90 2 -26.4000 40.2000 4 70 955 4.50000 5.00000 -26.3000 40.4000 TC 90 9 154
1997032S17055 1997 10 SI MM JOSIE 1997-02-14 15:00:00 TS -26.6866 40.5752 main 389 383 P____P______P_ SH231997 -26.6650 40.6200 87 2 -26.7299 40.4855 4 70 955 -26.6650 40.6200 TC 87 8 144
1997032S17055 1997 10 SI MM JOSIE 1997-02-14 18:00:00 TS -27.0000 40.8667 70 955 reunion main 381 379 O____O______O_ jtwc_sh SH231997 -27.0000 40.9000 85 2 -27.0000 40.8000 4 70 955 4.50000 5.00000 -27.0000 40.9000 TC 85 8 139
1997032S17055 1997 10 SI MM JOSIE 1997-02-14 21:00:00 TS -27.3117 41.1810 main 379 379 P____P______P_ SH231997 -27.2925 41.2002 82 1 -27.3500 41.1425 4 67 960 -27.2925 41.2002 TC 82 8 138
1997032S17055 1997 10 SI MM JOSIE 1997-02-15 00:00:00 TS -27.6333 41.5000 65 965 reunion main 382 382 O____O______O_ jtwc_sh SH231997 -27.6000 41.5000 80 1 -27.7000 41.5000 4 65 965 4.00000 4.50000 -27.6000 41.5000 TC 80 9 141
1997032S17055 1997 10 SI MM JOSIE 1997-02-15 03:00:00 TS -27.9800 41.8035 main 396 390 P____P______P_ SH231997 -27.9849 41.7651 77 1 -27.9701 41.8802 4 62 967 -27.9849 41.7651 TC 77 9 146
1997032S17055 1997 10 SI MM JOSIE 1997-02-15 06:00:00 TS -28.3667 42.0667 60 970 reunion main 414 414 O____O______O_ jtwc_sh SH231997 -28.4000 42.0000 75 1 -28.3000 42.2000 3 60 970 4.00000 4.50000 -28.4000 42.0000 TC 75 9 153
1997032S17055 1997 10 SI MM JOSIE 1997-02-15 09:00:00 TS -28.7991 42.2850 main 442 442 P____P______P_ SH231997 -28.7925 42.2300 72 1 -28.8124 42.3951 3 57 972 -28.7925 42.2300 TC 72 10 160
1997032S17055 1997 10 SI MM JOSIE 1997-02-15 12:00:00 TS -29.2667 42.4333 55 975 reunion main 488 484 O____O______O_ jtwc_sh SH231997 -29.2000 42.4000 70 1 -29.4000 42.5000 3 55 975 3.50000 4.00000 -29.2000 42.4000 TC 70 9 168
1997032S17055 1997 10 SI MM JOSIE 1997-02-15 15:00:00 TS -29.7225 42.5135 main 525 525 P____P______P_ SH231997 -29.6050 42.4802 67 1 -29.9575 42.5800 3 52 976 -29.6050 42.4802 TC 67 10 175
1997032S17055 1997 10 SI MM JOSIE 1997-02-15 18:00:00 TS -30.2333 42.5333 50 978 reunion main 577 577 O____O______O_ jtwc_sh SH231997 -30.1000 42.5000 65 1 -30.5000 42.6000 3 50 978 3.00000 4.00000 -30.1000 42.5000 TC 65 11 179
1997032S17055 1997 10 SI MM JOSIE 1997-02-15 21:00:00 TS -30.8442 42.5439 main 637 637 P____P______P_ SH231997 -30.7700 42.5296 62 0 -30.9925 42.5725 3 47 980 -30.7700 42.5296 TC 62 13 182
1997032S17055 1997 10 SI MM JOSIE 1997-02-16 00:00:00 TS -31.5000 42.5000 45 982 reunion main 709 709 O____O______O_ jtwc_sh SH231997 -31.5000 42.5000 60 0 -31.5000 42.5000 3 45 982 3.00000 3.50000 -31.5000 42.5000 TC 60 13 187
1997032S17055 1997 10 SI MM JOSIE 1997-02-16 03:00:00 TS -32.1359 42.3672 main 774 774 P____P______P_ SH231997 -32.1576 42.3581 57 0 -32.0925 42.3855 3 -32.1576 42.3581 TC 57 13 190
1997032S17055 1997 10 SI MM JOSIE 1997-02-16 06:00:00 MX -32.7667 42.2333 reunion main 854 854 O____O______O_ jtwc_sh SH231997 -32.8000 42.2000 55 0 -32.7000 42.3000 5 9.90000 -32.8000 42.2000 TC 55 13 188
1997032S17055 1997 10 SI MM JOSIE 1997-02-16 09:00:00 MX -33.3808 42.1695 main 917 917 P____P______P_ SH231997 -33.4499 42.0980 55 0 -33.2425 42.3125 5 -33.4499 42.0980 TC 55 12 181
1997032S17055 1997 10 SI MM JOSIE 1997-02-16 12:00:00 MX -34.0000 42.2000 reunion main 980 980 O____O______O_ jtwc_sh SH231997 -34.1000 42.1000 55 0 -33.8000 42.4000 5 9.90000 -34.1000 42.1000 TC 55 13 174
1997032S17055 1997 10 SI MM JOSIE 1997-02-16 15:00:00 MX -34.6473 42.3187 main 1042 1042 P____P______P_ SH231997 -34.7574 42.2326 52 0 -34.4273 42.4910 5 -34.7574 42.2326 TC 52 13 167
1997032S17055 1997 10 SI MM JOSIE 1997-02-16 18:00:00 MX -35.3000 42.5667 reunion main 1110 1110 O____O______O_ jtwc_sh SH231997 -35.4000 42.5000 50 0 -35.1000 42.7000 5 9.90000 -35.4000 42.5000 TC 50 14 160
1997032S17055 1997 10 SI MM JOSIE 1997-02-16 21:00:00 MX -35.9226 42.8901 main 1169 1169 P____P______P_ SH231997 -35.9922 42.8337 47 0 -35.7834 43.0028 5 -35.9922 42.8337 TC 47 14 152
1997032S17055 1997 10 SI MM JOSIE 1997-02-17 00:00:00 MX -36.5667 43.4000 reunion main 1238 1237 O____O______O_ jtwc_sh SH231997 -36.6000 43.3000 45 0 -36.5000 43.6000 5 9.90000 -36.6000 43.3000 TC 45 17 143
1997032S17055 1997 10 SI MM JOSIE 1997-02-17 03:00:00 MX -37.2679 44.1438 main 1309 1308 P____P______P_ SH231997 -37.2785 43.9067 45 0 -37.2466 44.6181 5 -37.2785 43.9067 TC 45 19 138
1997032S17055 1997 10 SI MM JOSIE 1997-02-17 06:00:00 MX -38.0000 45.0333 reunion main 1383 O____O______O_ jtwc_sh SH231997 -38.0000 44.6000 45 0 -38.0000 45.9000 5 9.90000 -38.0000 44.6000 TC 45 20 136

About IBTrACS Database

This database is a web-friendly format of International Best Track Archive for Climate Stewardship (IBTrACS), a global best track data archive curated by NOAA dating back to 1842.

Updated: 2021-10-21